sensor_id;sensor_type;location;lat;lon;timestamp;P1;durP1;ratioP1;P2;durP2;ratioP2
665;SDS011;315;48.738;9.126;2022-07-29T00:00:10;8.90;;;8.30;;
665;SDS011;315;48.738;9.126;2022-07-29T00:02:36;8.40;;;7.80;;
665;SDS011;315;48.738;9.126;2022-07-29T00:05:02;8.90;;;8.27;;
665;SDS011;315;48.738;9.126;2022-07-29T00:07:29;8.77;;;7.97;;
665;SDS011;315;48.738;9.126;2022-07-29T00:09:55;8.70;;;8.00;;
665;SDS011;315;48.738;9.126;2022-07-29T00:12:22;8.40;;;7.80;;
665;SDS011;315;48.738;9.126;2022-07-29T00:14:49;10.20;;;9.37;;
665;SDS011;315;48.738;9.126;2022-07-29T00:17:15;9.70;;;9.00;;
665;SDS011;315;48.738;9.126;2022-07-29T00:19:40;9.23;;;8.63;;
665;SDS011;315;48.738;9.126;2022-07-29T00:22:06;9.60;;;8.60;;
665;SDS011;315;48.738;9.126;2022-07-29T00:24:31;9.37;;;8.57;;
665;SDS011;315;48.738;9.126;2022-07-29T00:26:57;9.30;;;8.70;;
665;SDS011;315;48.738;9.126;2022-07-29T00:29:23;9.03;;;8.33;;
665;SDS011;315;48.738;9.126;2022-07-29T00:31:48;8.53;;;7.73;;
665;SDS011;315;48.738;9.126;2022-07-29T00:34:14;9.07;;;8.37;;
665;SDS011;315;48.738;9.126;2022-07-29T00:36:58;8.40;;;7.80;;
665;SDS011;315;48.738;9.126;2022-07-29T00:39:23;8.93;;;8.00;;
665;SDS011;315;48.738;9.126;2022-07-29T00:41:49;9.60;;;8.10;;
665;SDS011;315;48.738;9.126;2022-07-29T00:44:15;9.50;;;8.70;;
665;SDS011;315;48.738;9.126;2022-07-29T00:46:41;9.00;;;8.30;;
665;SDS011;315;48.738;9.126;2022-07-29T00:49:06;9.00;;;8.30;;
665;SDS011;315;48.738;9.126;2022-07-29T00:51:32;8.73;;;8.03;;
665;SDS011;315;48.738;9.126;2022-07-29T00:54:00;8.80;;;8.10;;
665;SDS011;315;48.738;9.126;2022-07-29T00:56:27;9.80;;;9.00;;
665;SDS011;315;48.738;9.126;2022-07-29T00:58:56;8.40;;;7.73;;
665;SDS011;315;48.738;9.126;2022-07-29T01:01:22;7.03;;;6.53;;
665;SDS011;315;48.738;9.126;2022-07-29T01:03:47;7.63;;;7.13;;
665;SDS011;315;48.738;9.126;2022-07-29T01:06:12;7.80;;;7.20;;
665;SDS011;315;48.738;9.126;2022-07-29T01:08:39;8.80;;;8.07;;
665;SDS011;315;48.738;9.126;2022-07-29T01:11:05;8.50;;;7.90;;
665;SDS011;315;48.738;9.126;2022-07-29T01:13:31;8.73;;;8.10;;
665;SDS011;315;48.738;9.126;2022-07-29T01:16:00;8.80;;;8.00;;
665;SDS011;315;48.738;9.126;2022-07-29T01:18:51;8.83;;;8.23;;
665;SDS011;315;48.738;9.126;2022-07-29T01:21:27;7.57;;;7.07;;
665;SDS011;315;48.738;9.126;2022-07-29T01:26:56;8.80;;;8.20;;
665;SDS011;315;48.738;9.126;2022-07-29T01:29:41;7.73;;;7.20;;
665;SDS011;315;48.738;9.126;2022-07-29T01:32:10;8.33;;;7.73;;
665;SDS011;315;48.738;9.126;2022-07-29T01:34:43;8.37;;;7.77;;
665;SDS011;315;48.738;9.126;2022-07-29T01:37:18;8.30;;;7.40;;
665;SDS011;315;48.738;9.126;2022-07-29T01:39:49;8.23;;;7.53;;
665;SDS011;315;48.738;9.126;2022-07-29T01:47:44;6.87;;;6.27;;
665;SDS011;315;48.738;9.126;2022-07-29T01:50:22;7.23;;;6.70;;
665;SDS011;315;48.738;9.126;2022-07-29T01:53:02;7.27;;;6.77;;
665;SDS011;315;48.738;9.126;2022-07-29T01:55:32;7.90;;;7.30;;
665;SDS011;315;48.738;9.126;2022-07-29T01:58:01;6.77;;;6.30;;
665;SDS011;315;48.738;9.126;2022-07-29T02:00:29;6.70;;;6.20;;
665;SDS011;315;48.738;9.126;2022-07-29T02:02:57;7.13;;;6.63;;
665;SDS011;315;48.738;9.126;2022-07-29T02:05:25;6.40;;;5.90;;
665;SDS011;315;48.738;9.126;2022-07-29T02:07:53;6.70;;;6.20;;
665;SDS011;315;48.738;9.126;2022-07-29T02:10:22;6.70;;;6.30;;
665;SDS011;315;48.738;9.126;2022-07-29T02:12:52;6.43;;;6.03;;
665;SDS011;315;48.738;9.126;2022-07-29T02:15:21;7.70;;;6.97;;
665;SDS011;315;48.738;9.126;2022-07-29T02:17:50;5.87;;;5.47;;
665;SDS011;315;48.738;9.126;2022-07-29T02:20:20;6.23;;;5.73;;
665;SDS011;315;48.738;9.126;2022-07-29T02:22:48;7.57;;;6.60;;
665;SDS011;315;48.738;9.126;2022-07-29T02:25:15;7.13;;;6.40;;
665;SDS011;315;48.738;9.126;2022-07-29T02:27:42;6.10;;;5.70;;
665;SDS011;315;48.738;9.126;2022-07-29T02:30:09;6.90;;;6.40;;
665;SDS011;315;48.738;9.126;2022-07-29T02:32:37;7.57;;;7.07;;
665;SDS011;315;48.738;9.126;2022-07-29T02:35:05;6.57;;;6.10;;
665;SDS011;315;48.738;9.126;2022-07-29T02:37:32;5.47;;;5.10;;
665;SDS011;315;48.738;9.126;2022-07-29T02:40:00;7.13;;;6.63;;
665;SDS011;315;48.738;9.126;2022-07-29T02:42:26;6.90;;;6.20;;
665;SDS011;315;48.738;9.126;2022-07-29T02:44:53;6.70;;;6.20;;
665;SDS011;315;48.738;9.126;2022-07-29T02:47:23;6.03;;;5.63;;
665;SDS011;315;48.738;9.126;2022-07-29T02:52:49;6.80;;;6.30;;
665;SDS011;315;48.738;9.126;2022-07-29T02:55:29;6.60;;;6.10;;
665;SDS011;315;48.738;9.126;2022-07-29T02:58:01;6.47;;;6.03;;
665;SDS011;315;48.738;9.126;2022-07-29T03:00:28;6.60;;;6.20;;
665;SDS011;315;48.738;9.126;2022-07-29T03:02:56;6.60;;;6.03;;
665;SDS011;315;48.738;9.126;2022-07-29T03:05:24;7.20;;;6.70;;
665;SDS011;315;48.738;9.126;2022-07-29T03:08:00;6.37;;;5.97;;
665;SDS011;315;48.738;9.126;2022-07-29T03:10:28;7.03;;;6.53;;
665;SDS011;315;48.738;9.126;2022-07-29T03:12:55;6.37;;;5.87;;
665;SDS011;315;48.738;9.126;2022-07-29T03:15:21;7.77;;;7.07;;
665;SDS011;315;48.738;9.126;2022-07-29T03:17:47;6.80;;;6.30;;
665;SDS011;315;48.738;9.126;2022-07-29T03:20:14;6.90;;;6.50;;
665;SDS011;315;48.738;9.126;2022-07-29T03:22:40;7.00;;;6.40;;
665;SDS011;315;48.738;9.126;2022-07-29T03:25:16;6.50;;;6.00;;
665;SDS011;315;48.738;9.126;2022-07-29T03:27:43;6.60;;;6.00;;
665;SDS011;315;48.738;9.126;2022-07-29T03:30:09;6.30;;;5.83;;
665;SDS011;315;48.738;9.126;2022-07-29T03:32:36;5.87;;;5.33;;
665;SDS011;315;48.738;9.126;2022-07-29T03:35:02;6.60;;;6.20;;
665;SDS011;315;48.738;9.126;2022-07-29T03:37:29;6.30;;;5.80;;
665;SDS011;315;48.738;9.126;2022-07-29T03:39:55;6.10;;;5.70;;
665;SDS011;315;48.738;9.126;2022-07-29T03:42:28;5.70;;;5.30;;
665;SDS011;315;48.738;9.126;2022-07-29T03:44:57;5.60;;;5.20;;
665;SDS011;315;48.738;9.126;2022-07-29T03:47:25;7.03;;;6.43;;
665;SDS011;315;48.738;9.126;2022-07-29T03:49:54;6.57;;;6.07;;
665;SDS011;315;48.738;9.126;2022-07-29T03:52:23;6.47;;;5.97;;
665;SDS011;315;48.738;9.126;2022-07-29T03:54:49;6.50;;;6.10;;
665;SDS011;315;48.738;9.126;2022-07-29T03:57:14;6.37;;;5.87;;
665;SDS011;315;48.738;9.126;2022-07-29T03:59:41;6.50;;;6.10;;
665;SDS011;315;48.738;9.126;2022-07-29T04:02:09;5.73;;;5.37;;
665;SDS011;315;48.738;9.126;2022-07-29T04:04:36;6.33;;;5.93;;
665;SDS011;315;48.738;9.126;2022-07-29T04:07:02;7.03;;;6.07;;
665;SDS011;315;48.738;9.126;2022-07-29T04:09:28;5.60;;;5.30;;
665;SDS011;315;48.738;9.126;2022-07-29T04:11:54;5.50;;;5.00;;
665;SDS011;315;48.738;9.126;2022-07-29T04:14:20;6.33;;;5.83;;
665;SDS011;315;48.738;9.126;2022-07-29T04:16:45;6.27;;;5.87;;
665;SDS011;315;48.738;9.126;2022-07-29T04:19:11;6.87;;;6.37;;
665;SDS011;315;48.738;9.126;2022-07-29T04:21:37;7.23;;;6.73;;
665;SDS011;315;48.738;9.126;2022-07-29T04:24:04;7.27;;;6.57;;
665;SDS011;315;48.738;9.126;2022-07-29T04:26:30;6.40;;;5.90;;
665;SDS011;315;48.738;9.126;2022-07-29T04:28:55;6.63;;;6.13;;
665;SDS011;315;48.738;9.126;2022-07-29T04:31:21;5.87;;;5.37;;
665;SDS011;315;48.738;9.126;2022-07-29T04:33:47;7.23;;;6.53;;
665;SDS011;315;48.738;9.126;2022-07-29T04:36:12;7.77;;;7.17;;
665;SDS011;315;48.738;9.126;2022-07-29T04:38:38;5.33;;;5.03;;
665;SDS011;315;48.738;9.126;2022-07-29T04:41:03;5.00;;;4.60;;
665;SDS011;315;48.738;9.126;2022-07-29T04:43:29;5.30;;;4.90;;
665;SDS011;315;48.738;9.126;2022-07-29T04:45:55;5.10;;;4.63;;
665;SDS011;315;48.738;9.126;2022-07-29T04:48:21;5.03;;;4.60;;
665;SDS011;315;48.738;9.126;2022-07-29T04:50:46;5.37;;;4.87;;
665;SDS011;315;48.738;9.126;2022-07-29T04:53:12;5.73;;;5.23;;
665;SDS011;315;48.738;9.126;2022-07-29T04:55:37;4.60;;;4.30;;
665;SDS011;315;48.738;9.126;2022-07-29T04:58:03;3.97;;;3.67;;
665;SDS011;315;48.738;9.126;2022-07-29T05:00:28;6.50;;;4.20;;
665;SDS011;315;48.738;9.126;2022-07-29T05:02:54;5.30;;;5.00;;
665;SDS011;315;48.738;9.126;2022-07-29T05:05:19;4.33;;;3.93;;
665;SDS011;315;48.738;9.126;2022-07-29T05:07:45;4.87;;;4.57;;
665;SDS011;315;48.738;9.126;2022-07-29T05:10:10;3.97;;;3.67;;
665;SDS011;315;48.738;9.126;2022-07-29T05:12:36;4.37;;;4.07;;
665;SDS011;315;48.738;9.126;2022-07-29T05:15:02;4.33;;;4.03;;
665;SDS011;315;48.738;9.126;2022-07-29T05:17:28;4.47;;;4.17;;
665;SDS011;315;48.738;9.126;2022-07-29T05:19:53;4.00;;;3.70;;
665;SDS011;315;48.738;9.126;2022-07-29T05:22:19;3.43;;;3.23;;
665;SDS011;315;48.738;9.126;2022-07-29T05:24:45;4.00;;;3.60;;
665;SDS011;315;48.738;9.126;2022-07-29T05:27:11;7.17;;;4.30;;
665;SDS011;315;48.738;9.126;2022-07-29T05:29:37;4.43;;;4.13;;
665;SDS011;315;48.738;9.126;2022-07-29T05:32:03;4.13;;;3.83;;
665;SDS011;315;48.738;9.126;2022-07-29T05:34:29;4.70;;;4.30;;
665;SDS011;315;48.738;9.126;2022-07-29T05:36:55;4.57;;;4.27;;
665;SDS011;315;48.738;9.126;2022-07-29T05:39:21;3.87;;;3.50;;
665;SDS011;315;48.738;9.126;2022-07-29T05:41:48;4.57;;;4.20;;
665;SDS011;315;48.738;9.126;2022-07-29T05:44:13;4.97;;;4.20;;
665;SDS011;315;48.738;9.126;2022-07-29T05:46:39;4.50;;;4.20;;
665;SDS011;315;48.738;9.126;2022-07-29T05:49:05;4.83;;;4.53;;
665;SDS011;315;48.738;9.126;2022-07-29T05:51:31;5.50;;;5.20;;
665;SDS011;315;48.738;9.126;2022-07-29T05:53:57;5.07;;;4.77;;
665;SDS011;315;48.738;9.126;2022-07-29T05:56:23;4.93;;;4.53;;
665;SDS011;315;48.738;9.126;2022-07-29T05:58:49;6.00;;;4.30;;
665;SDS011;315;48.738;9.126;2022-07-29T06:01:14;4.50;;;4.20;;
665;SDS011;315;48.738;9.126;2022-07-29T06:03:39;4.47;;;4.17;;
665;SDS011;315;48.738;9.126;2022-07-29T06:06:06;4.77;;;4.30;;
665;SDS011;315;48.738;9.126;2022-07-29T06:08:32;5.30;;;4.80;;
665;SDS011;315;48.738;9.126;2022-07-29T06:10:58;5.70;;;5.30;;
665;SDS011;315;48.738;9.126;2022-07-29T06:13:24;5.03;;;4.70;;
665;SDS011;315;48.738;9.126;2022-07-29T06:15:50;5.33;;;5.00;;
665;SDS011;315;48.738;9.126;2022-07-29T06:18:15;6.50;;;5.97;;
665;SDS011;315;48.738;9.126;2022-07-29T06:20:41;5.73;;;5.20;;
665;SDS011;315;48.738;9.126;2022-07-29T06:23:07;5.60;;;5.10;;
665;SDS011;315;48.738;9.126;2022-07-29T06:25:32;5.10;;;4.80;;
665;SDS011;315;48.738;9.126;2022-07-29T06:28:00;4.50;;;4.20;;
665;SDS011;315;48.738;9.126;2022-07-29T06:30:26;5.60;;;5.20;;
665;SDS011;315;48.738;9.126;2022-07-29T06:32:52;5.13;;;4.73;;
665;SDS011;315;48.738;9.126;2022-07-29T06:35:17;5.17;;;4.70;;
665;SDS011;315;48.738;9.126;2022-07-29T06:37:43;5.40;;;5.10;;
665;SDS011;315;48.738;9.126;2022-07-29T06:40:08;5.63;;;5.13;;
665;SDS011;315;48.738;9.126;2022-07-29T06:42:53;7.63;;;5.33;;
665;SDS011;315;48.738;9.126;2022-07-29T06:45:19;6.00;;;5.40;;
665;SDS011;315;48.738;9.126;2022-07-29T06:47:44;5.73;;;5.37;;
665;SDS011;315;48.738;9.126;2022-07-29T06:50:10;6.00;;;5.60;;
665;SDS011;315;48.738;9.126;2022-07-29T06:52:37;6.73;;;6.23;;
665;SDS011;315;48.738;9.126;2022-07-29T06:55:03;6.37;;;5.87;;
665;SDS011;315;48.738;9.126;2022-07-29T06:57:29;6.13;;;5.40;;
665;SDS011;315;48.738;9.126;2022-07-29T06:59:58;5.87;;;5.27;;
665;SDS011;315;48.738;9.126;2022-07-29T07:02:23;5.80;;;5.30;;
665;SDS011;315;48.738;9.126;2022-07-29T07:04:49;5.67;;;5.27;;
665;SDS011;315;48.738;9.126;2022-07-29T07:07:14;5.83;;;5.33;;
665;SDS011;315;48.738;9.126;2022-07-29T07:09:40;5.00;;;4.60;;
665;SDS011;315;48.738;9.126;2022-07-29T07:12:05;5.77;;;5.27;;
665;SDS011;315;48.738;9.126;2022-07-29T07:14:31;7.50;;;6.90;;
665;SDS011;315;48.738;9.126;2022-07-29T07:16:57;6.53;;;6.03;;
665;SDS011;315;48.738;9.126;2022-07-29T07:19:25;6.33;;;5.73;;
665;SDS011;315;48.738;9.126;2022-07-29T07:21:50;6.40;;;5.87;;
665;SDS011;315;48.738;9.126;2022-07-29T07:24:17;5.90;;;5.40;;
665;SDS011;315;48.738;9.126;2022-07-29T07:26:43;5.03;;;4.73;;
665;SDS011;315;48.738;9.126;2022-07-29T07:29:08;5.63;;;5.00;;
665;SDS011;315;48.738;9.126;2022-07-29T07:31:34;6.03;;;5.53;;
665;SDS011;315;48.738;9.126;2022-07-29T07:34:00;6.17;;;5.77;;
665;SDS011;315;48.738;9.126;2022-07-29T07:36:26;5.73;;;5.23;;
665;SDS011;315;48.738;9.126;2022-07-29T07:38:51;5.93;;;5.53;;
665;SDS011;315;48.738;9.126;2022-07-29T07:41:17;7.83;;;7.13;;
665;SDS011;315;48.738;9.126;2022-07-29T07:43:42;5.77;;;5.37;;
665;SDS011;315;48.738;9.126;2022-07-29T07:46:08;5.90;;;5.60;;
665;SDS011;315;48.738;9.126;2022-07-29T07:48:33;6.67;;;6.07;;
665;SDS011;315;48.738;9.126;2022-07-29T07:50:59;5.87;;;5.47;;
665;SDS011;315;48.738;9.126;2022-07-29T07:53:25;5.97;;;5.30;;
665;SDS011;315;48.738;9.126;2022-07-29T07:55:51;5.50;;;5.13;;
665;SDS011;315;48.738;9.126;2022-07-29T07:58:16;5.37;;;4.97;;
665;SDS011;315;48.738;9.126;2022-07-29T08:00:42;5.77;;;5.37;;
665;SDS011;315;48.738;9.126;2022-07-29T08:03:07;6.23;;;5.77;;
665;SDS011;315;48.738;9.126;2022-07-29T08:05:33;5.57;;;5.20;;
665;SDS011;315;48.738;9.126;2022-07-29T08:07:58;6.40;;;5.90;;
665;SDS011;315;48.738;9.126;2022-07-29T08:10:24;6.07;;;5.67;;
665;SDS011;315;48.738;9.126;2022-07-29T08:13:19;5.73;;;5.30;;
665;SDS011;315;48.738;9.126;2022-07-29T08:15:46;6.00;;;5.60;;
665;SDS011;315;48.738;9.126;2022-07-29T08:18:12;6.47;;;6.00;;
665;SDS011;315;48.738;9.126;2022-07-29T08:20:38;6.90;;;6.30;;
665;SDS011;315;48.738;9.126;2022-07-29T08:23:05;5.87;;;5.40;;
665;SDS011;315;48.738;9.126;2022-07-29T08:25:33;5.60;;;5.20;;
665;SDS011;315;48.738;9.126;2022-07-29T08:28:00;5.80;;;5.40;;
665;SDS011;315;48.738;9.126;2022-07-29T08:30:26;5.77;;;5.30;;
665;SDS011;315;48.738;9.126;2022-07-29T08:32:51;7.33;;;5.30;;
665;SDS011;315;48.738;9.126;2022-07-29T08:35:18;7.43;;;6.73;;
665;SDS011;315;48.738;9.126;2022-07-29T08:37:44;6.03;;;5.67;;
665;SDS011;315;48.738;9.126;2022-07-29T08:40:10;6.37;;;5.77;;
665;SDS011;315;48.738;9.126;2022-07-29T08:42:36;8.40;;;6.30;;
665;SDS011;315;48.738;9.126;2022-07-29T08:45:02;5.60;;;5.20;;
665;SDS011;315;48.738;9.126;2022-07-29T08:47:29;6.50;;;6.10;;
665;SDS011;315;48.738;9.126;2022-07-29T08:49:55;5.60;;;5.30;;
665;SDS011;315;48.738;9.126;2022-07-29T08:52:20;10.43;;;5.70;;
665;SDS011;315;48.738;9.126;2022-07-29T08:54:48;6.43;;;4.90;;
665;SDS011;315;48.738;9.126;2022-07-29T08:57:14;6.87;;;6.30;;
665;SDS011;315;48.738;9.126;2022-07-29T08:59:42;6.63;;;6.00;;
665;SDS011;315;48.738;9.126;2022-07-29T09:02:12;5.73;;;5.33;;
665;SDS011;315;48.738;9.126;2022-07-29T09:04:50;6.40;;;5.80;;
665;SDS011;315;48.738;9.126;2022-07-29T09:07:17;7.50;;;6.17;;
665;SDS011;315;48.738;9.126;2022-07-29T09:09:43;5.90;;;5.50;;
665;SDS011;315;48.738;9.126;2022-07-29T09:12:10;6.40;;;5.80;;
665;SDS011;315;48.738;9.126;2022-07-29T09:14:39;5.67;;;5.27;;
665;SDS011;315;48.738;9.126;2022-07-29T09:17:05;6.23;;;5.33;;
665;SDS011;315;48.738;9.126;2022-07-29T09:19:31;7.57;;;5.30;;
665;SDS011;315;48.738;9.126;2022-07-29T09:21:59;5.87;;;5.50;;
665;SDS011;315;48.738;9.126;2022-07-29T09:24:36;6.80;;;6.20;;
665;SDS011;315;48.738;9.126;2022-07-29T09:27:07;7.00;;;6.50;;
665;SDS011;315;48.738;9.126;2022-07-29T09:29:48;6.90;;;6.27;;
665;SDS011;315;48.738;9.126;2022-07-29T09:32:21;6.17;;;5.67;;
665;SDS011;315;48.738;9.126;2022-07-29T09:34:46;6.80;;;6.27;;
665;SDS011;315;48.738;9.126;2022-07-29T09:37:12;9.77;;;6.63;;
665;SDS011;315;48.738;9.126;2022-07-29T09:39:51;6.20;;;5.70;;
665;SDS011;315;48.738;9.126;2022-07-29T09:42:17;6.43;;;6.13;;
665;SDS011;315;48.738;9.126;2022-07-29T09:44:53;11.07;;;5.80;;
665;SDS011;315;48.738;9.126;2022-07-29T09:47:19;6.53;;;5.80;;
665;SDS011;315;48.738;9.126;2022-07-29T09:52:19;6.53;;;6.03;;
665;SDS011;315;48.738;9.126;2022-07-29T09:54:46;5.80;;;5.37;;
665;SDS011;315;48.738;9.126;2022-07-29T09:57:27;6.20;;;5.70;;
665;SDS011;315;48.738;9.126;2022-07-29T10:00:00;6.83;;;6.23;;
665;SDS011;315;48.738;9.126;2022-07-29T10:02:28;7.77;;;7.27;;
665;SDS011;315;48.738;9.126;2022-07-29T10:04:58;10.60;;;5.90;;
665;SDS011;315;48.738;9.126;2022-07-29T10:07:26;9.23;;;6.50;;
665;SDS011;315;48.738;9.126;2022-07-29T10:10:07;6.13;;;5.63;;
665;SDS011;315;48.738;9.126;2022-07-29T10:12:33;7.57;;;6.67;;
665;SDS011;315;48.738;9.126;2022-07-29T10:14:58;6.73;;;6.23;;
665;SDS011;315;48.738;9.126;2022-07-29T10:17:26;9.00;;;6.80;;
665;SDS011;315;48.738;9.126;2022-07-29T10:19:53;7.80;;;6.90;;
665;SDS011;315;48.738;9.126;2022-07-29T10:22:18;6.37;;;5.90;;
665;SDS011;315;48.738;9.126;2022-07-29T10:24:44;7.00;;;6.43;;
665;SDS011;315;48.738;9.126;2022-07-29T10:27:10;7.03;;;6.43;;
665;SDS011;315;48.738;9.126;2022-07-29T10:29:36;8.23;;;6.47;;
665;SDS011;315;48.738;9.126;2022-07-29T10:32:21;8.30;;;7.70;;
665;SDS011;315;48.738;9.126;2022-07-29T10:35:05;12.27;;;7.83;;
665;SDS011;315;48.738;9.126;2022-07-29T10:43:46;10.93;;;8.10;;
665;SDS011;315;48.738;9.126;2022-07-29T10:46:13;8.90;;;8.20;;
665;SDS011;315;48.738;9.126;2022-07-29T10:51:50;8.87;;;8.17;;
665;SDS011;315;48.738;9.126;2022-07-29T11:07:36;14.90;;;12.43;;
665;SDS011;315;48.738;9.126;2022-07-29T11:15:04;14.10;;;12.80;;
665;SDS011;315;48.738;9.126;2022-07-29T11:20:35;15.10;;;13.70;;
665;SDS011;315;48.738;9.126;2022-07-29T11:23:19;13.37;;;12.23;;
665;SDS011;315;48.738;9.126;2022-07-29T11:29:22;14.70;;;13.13;;
665;SDS011;315;48.738;9.126;2022-07-29T11:39:41;18.53;;;16.20;;
665;SDS011;315;48.738;9.126;2022-07-29T11:47:31;14.13;;;12.10;;
665;SDS011;315;48.738;9.126;2022-07-29T11:50:00;12.30;;;11.40;;
665;SDS011;315;48.738;9.126;2022-07-29T11:53:00;12.80;;;11.70;;
665;SDS011;315;48.738;9.126;2022-07-29T11:55:20;13.00;;;12.07;;
665;SDS011;315;48.738;9.126;2022-07-29T11:57:56;17.17;;;13.90;;
665;SDS011;315;48.738;9.126;2022-07-29T12:00:27;14.13;;;13.00;;
665;SDS011;315;48.738;9.126;2022-07-29T12:02:53;12.90;;;11.87;;
665;SDS011;315;48.738;9.126;2022-07-29T12:05:19;14.90;;;13.43;;
665;SDS011;315;48.738;9.126;2022-07-29T12:07:45;12.80;;;11.73;;
665;SDS011;315;48.738;9.126;2022-07-29T12:10:12;13.40;;;12.40;;
665;SDS011;315;48.738;9.126;2022-07-29T12:12:38;13.37;;;12.23;;
665;SDS011;315;48.738;9.126;2022-07-29T12:15:16;12.13;;;10.93;;
665;SDS011;315;48.738;9.126;2022-07-29T12:17:45;12.33;;;10.37;;
665;SDS011;315;48.738;9.126;2022-07-29T12:20:11;12.40;;;11.27;;
665;SDS011;315;48.738;9.126;2022-07-29T12:22:38;12.20;;;10.90;;
665;SDS011;315;48.738;9.126;2022-07-29T12:27:36;13.60;;;10.30;;
665;SDS011;315;48.738;9.126;2022-07-29T12:30:06;10.07;;;9.13;;
665;SDS011;315;48.738;9.126;2022-07-29T12:32:34;10.07;;;9.17;;
665;SDS011;315;48.738;9.126;2022-07-29T12:35:05;10.27;;;9.20;;
665;SDS011;315;48.738;9.126;2022-07-29T12:37:36;11.33;;;9.83;;
665;SDS011;315;48.738;9.126;2022-07-29T12:40:04;13.13;;;12.13;;
665;SDS011;315;48.738;9.126;2022-07-29T12:42:30;14.07;;;10.20;;
665;SDS011;315;48.738;9.126;2022-07-29T12:44:56;10.50;;;9.70;;
665;SDS011;315;48.738;9.126;2022-07-29T12:47:22;11.27;;;10.27;;
665;SDS011;315;48.738;9.126;2022-07-29T12:49:48;11.07;;;10.00;;
665;SDS011;315;48.738;9.126;2022-07-29T12:52:27;10.40;;;9.60;;
665;SDS011;315;48.738;9.126;2022-07-29T12:54:57;11.03;;;10.13;;
665;SDS011;315;48.738;9.126;2022-07-29T12:57:23;9.90;;;9.03;;
665;SDS011;315;48.738;9.126;2022-07-29T13:00:00;9.90;;;9.10;;
665;SDS011;315;48.738;9.126;2022-07-29T13:02:28;11.10;;;10.10;;
665;SDS011;315;48.738;9.126;2022-07-29T13:04:57;10.00;;;9.10;;
665;SDS011;315;48.738;9.126;2022-07-29T13:07:27;11.13;;;10.00;;
665;SDS011;315;48.738;9.126;2022-07-29T13:10:09;21.73;;;19.50;;
665;SDS011;315;48.738;9.126;2022-07-29T13:12:35;13.83;;;12.50;;
665;SDS011;315;48.738;9.126;2022-07-29T13:15:11;12.47;;;11.17;;
665;SDS011;315;48.738;9.126;2022-07-29T13:17:42;10.20;;;9.40;;
665;SDS011;315;48.738;9.126;2022-07-29T13:20:09;10.90;;;9.67;;
665;SDS011;315;48.738;9.126;2022-07-29T13:22:39;9.83;;;8.97;;
665;SDS011;315;48.738;9.126;2022-07-29T13:25:07;11.83;;;10.13;;
665;SDS011;315;48.738;9.126;2022-07-29T13:27:34;13.17;;;11.97;;
665;SDS011;315;48.738;9.126;2022-07-29T13:30:06;11.13;;;10.20;;
665;SDS011;315;48.738;9.126;2022-07-29T13:32:33;12.47;;;11.17;;
665;SDS011;315;48.738;9.126;2022-07-29T13:35:03;13.03;;;11.73;;
665;SDS011;315;48.738;9.126;2022-07-29T13:37:30;13.03;;;11.63;;
665;SDS011;315;48.738;9.126;2022-07-29T13:39:58;14.17;;;12.27;;
665;SDS011;315;48.738;9.126;2022-07-29T13:42:24;13.30;;;12.20;;
665;SDS011;315;48.738;9.126;2022-07-29T13:44:51;13.80;;;12.70;;
665;SDS011;315;48.738;9.126;2022-07-29T13:47:20;14.90;;;13.50;;
665;SDS011;315;48.738;9.126;2022-07-29T13:49:46;13.83;;;12.83;;
665;SDS011;315;48.738;9.126;2022-07-29T13:52:12;14.30;;;13.20;;
665;SDS011;315;48.738;9.126;2022-07-29T13:54:37;13.87;;;12.83;;
665;SDS011;315;48.738;9.126;2022-07-29T13:57:03;14.40;;;13.00;;
665;SDS011;315;48.738;9.126;2022-07-29T13:59:29;15.33;;;12.53;;
665;SDS011;315;48.738;9.126;2022-07-29T14:01:55;14.80;;;13.53;;
665;SDS011;315;48.738;9.126;2022-07-29T14:04:20;13.33;;;12.10;;
665;SDS011;315;48.738;9.126;2022-07-29T14:06:47;14.60;;;13.30;;
665;SDS011;315;48.738;9.126;2022-07-29T14:09:13;12.23;;;11.23;;
665;SDS011;315;48.738;9.126;2022-07-29T14:11:39;13.20;;;12.20;;
665;SDS011;315;48.738;9.126;2022-07-29T14:14:05;12.83;;;11.90;;
665;SDS011;315;48.738;9.126;2022-07-29T14:16:30;13.10;;;12.00;;
665;SDS011;315;48.738;9.126;2022-07-29T14:18:56;13.17;;;12.00;;
665;SDS011;315;48.738;9.126;2022-07-29T14:21:21;11.67;;;10.60;;
665;SDS011;315;48.738;9.126;2022-07-29T14:23:47;11.83;;;10.93;;
665;SDS011;315;48.738;9.126;2022-07-29T14:26:13;12.07;;;10.80;;
665;SDS011;315;48.738;9.126;2022-07-29T14:28:38;12.40;;;11.40;;
665;SDS011;315;48.738;9.126;2022-07-29T14:31:04;11.77;;;10.80;;
665;SDS011;315;48.738;9.126;2022-07-29T14:33:29;13.77;;;12.50;;
665;SDS011;315;48.738;9.126;2022-07-29T14:35:55;13.40;;;12.20;;
665;SDS011;315;48.738;9.126;2022-07-29T14:38:20;12.23;;;11.33;;
665;SDS011;315;48.738;9.126;2022-07-29T14:40:46;11.50;;;10.53;;
665;SDS011;315;48.738;9.126;2022-07-29T14:43:12;11.63;;;10.60;;
665;SDS011;315;48.738;9.126;2022-07-29T14:45:38;11.77;;;10.73;;
665;SDS011;315;48.738;9.126;2022-07-29T14:48:04;12.33;;;11.40;;
665;SDS011;315;48.738;9.126;2022-07-29T14:50:30;12.10;;;10.90;;
665;SDS011;315;48.738;9.126;2022-07-29T14:52:56;10.80;;;10.00;;
665;SDS011;315;48.738;9.126;2022-07-29T14:55:21;11.63;;;10.80;;
665;SDS011;315;48.738;9.126;2022-07-29T14:57:47;11.23;;;10.27;;
665;SDS011;315;48.738;9.126;2022-07-29T15:00:14;11.53;;;10.53;;
665;SDS011;315;48.738;9.126;2022-07-29T15:02:41;11.47;;;10.57;;
665;SDS011;315;48.738;9.126;2022-07-29T15:05:07;11.70;;;10.57;;
665;SDS011;315;48.738;9.126;2022-07-29T15:07:33;10.40;;;9.70;;
665;SDS011;315;48.738;9.126;2022-07-29T15:09:58;11.17;;;10.37;;
665;SDS011;315;48.738;9.126;2022-07-29T15:12:24;11.50;;;10.50;;
665;SDS011;315;48.738;9.126;2022-07-29T15:14:49;10.20;;;9.50;;
665;SDS011;315;48.738;9.126;2022-07-29T15:17:15;11.30;;;10.40;;
665;SDS011;315;48.738;9.126;2022-07-29T15:19:40;11.47;;;10.43;;
665;SDS011;315;48.738;9.126;2022-07-29T15:22:06;9.67;;;8.97;;
665;SDS011;315;48.738;9.126;2022-07-29T15:24:32;10.17;;;9.47;;
665;SDS011;315;48.738;9.126;2022-07-29T15:26:57;10.70;;;9.90;;
665;SDS011;315;48.738;9.126;2022-07-29T15:29:23;9.97;;;9.17;;
665;SDS011;315;48.738;9.126;2022-07-29T15:31:49;9.93;;;9.20;;
665;SDS011;315;48.738;9.126;2022-07-29T15:34:14;13.03;;;9.90;;
665;SDS011;315;48.738;9.126;2022-07-29T15:36:40;11.37;;;10.27;;
665;SDS011;315;48.738;9.126;2022-07-29T15:39:06;10.07;;;9.03;;
665;SDS011;315;48.738;9.126;2022-07-29T15:41:32;10.90;;;9.93;;
665;SDS011;315;48.738;9.126;2022-07-29T15:43:58;10.43;;;9.63;;
665;SDS011;315;48.738;9.126;2022-07-29T15:46:24;11.00;;;10.10;;
665;SDS011;315;48.738;9.126;2022-07-29T15:49:08;11.37;;;10.00;;
665;SDS011;315;48.738;9.126;2022-07-29T15:51:34;9.97;;;9.30;;
665;SDS011;315;48.738;9.126;2022-07-29T15:54:03;12.37;;;11.07;;
665;SDS011;315;48.738;9.126;2022-07-29T15:56:29;9.53;;;8.73;;
665;SDS011;315;48.738;9.126;2022-07-29T15:58:55;9.83;;;9.23;;
665;SDS011;315;48.738;9.126;2022-07-29T16:01:21;10.13;;;9.40;;
665;SDS011;315;48.738;9.126;2022-07-29T16:03:47;10.70;;;9.80;;
665;SDS011;315;48.738;9.126;2022-07-29T16:06:12;10.00;;;9.30;;
665;SDS011;315;48.738;9.126;2022-07-29T16:08:38;15.67;;;14.03;;
665;SDS011;315;48.738;9.126;2022-07-29T16:11:03;17.20;;;15.90;;
665;SDS011;315;48.738;9.126;2022-07-29T16:13:29;11.00;;;9.93;;
665;SDS011;315;48.738;9.126;2022-07-29T16:15:55;11.83;;;10.93;;
665;SDS011;315;48.738;9.126;2022-07-29T16:18:21;11.63;;;10.53;;
665;SDS011;315;48.738;9.126;2022-07-29T16:20:46;11.07;;;10.37;;
665;SDS011;315;48.738;9.126;2022-07-29T16:23:12;11.43;;;10.40;;
665;SDS011;315;48.738;9.126;2022-07-29T16:25:37;11.43;;;10.37;;
665;SDS011;315;48.738;9.126;2022-07-29T16:28:03;12.37;;;11.57;;
665;SDS011;315;48.738;9.126;2022-07-29T16:30:29;11.97;;;11.00;;
665;SDS011;315;48.738;9.126;2022-07-29T16:32:55;12.97;;;11.97;;
665;SDS011;315;48.738;9.126;2022-07-29T16:35:21;12.43;;;11.47;;
665;SDS011;315;48.738;9.126;2022-07-29T16:37:46;12.87;;;11.97;;
665;SDS011;315;48.738;9.126;2022-07-29T16:40:12;13.30;;;12.30;;
665;SDS011;315;48.738;9.126;2022-07-29T16:42:37;12.30;;;11.40;;